Time;durP1;ratioP1;P1;durP2;ratioP2;P2;SDS_P1;SDS_P2;PMS_P1;PMS_P2;Temp;Humidity;BMP_temperature;BMP_pressure;BME280_temperature;BME280_humidity;BME280_pressure;Samples;Min_cycle;Max_cycle;Signal;HPM_P1;HPM_P2
2023/12/25 00:01:23;;;;;;;5.65;1.33;;;12.00;99.90;;;;;;4983295;28;20065;-76
2023/12/25 00:03:49;;;;;;;14.52;1.50;;;12.00;99.90;;;;;;5014246;28;20049;-76
2023/12/25 00:06:14;;;;;;;6.40;1.50;;;12.00;99.90;;;;;;4999273;28;20063;-76
2023/12/25 00:08:40;;;;;;;8.00;1.90;;;11.90;99.90;;;;;;5014048;28;20042;-76
2023/12/25 00:11:06;;;;;;;8.32;1.33;;;11.90;99.90;;;;;;4978843;28;20586;-76
2023/12/25 00:13:31;;;;;;;7.07;0.95;;;12.00;99.90;;;;;;4980154;28;20045;-75
2023/12/25 00:15:57;;;;;;;4.53;1.10;;;12.00;99.90;;;;;;4997594;28;20098;-75
2023/12/25 00:18:23;;;;;;;10.57;1.23;;;12.00;99.90;;;;;;4993122;28;20082;-75
2023/12/25 00:20:49;;;;;;;8.00;1.25;;;12.00;99.90;;;;;;4985074;28;20220;-75
2023/12/25 00:23:14;;;;;;;8.77;1.42;;;11.90;99.90;;;;;;4972860;28;20046;-75
2023/12/25 00:25:40;;;;;;;11.43;2.10;;;11.90;99.90;;;;;;4977954;28;20045;-75
2023/12/25 00:28:06;;;;;;;5.22;1.05;;;11.90;99.90;;;;;;4975482;28;20072;-75
2023/12/25 00:30:31;;;;;;;9.75;1.33;;;11.90;99.90;;;;;;4978777;28;20395;-75
2023/12/25 00:32:57;;;;;;;5.22;1.45;;;11.90;99.90;;;;;;4977447;28;20042;-73
2023/12/25 00:35:23;;;;;;;12.20;2.10;;;11.80;99.90;;;;;;4993388;28;20109;-73
2023/12/25 00:37:48;;;;;;;7.22;1.15;;;11.80;99.90;;;;;;5000495;28;20053;-73
2023/12/25 00:40:14;;;;;;;3.75;1.35;;;11.70;99.90;;;;;;4999553;28;20486;-73
2023/12/25 00:42:40;;;;;;;13.23;1.38;;;11.70;99.90;;;;;;4967898;28;20041;-73
2023/12/25 00:45:06;;;;;;;7.57;0.93;;;11.60;99.90;;;;;;4966393;28;20097;-73
2023/12/25 00:47:31;;;;;;;7.78;1.02;;;11.60;99.90;;;;;;4984548;28;20057;-73
2023/12/25 00:49:57;;;;;;;8.43;1.00;;;11.50;99.90;;;;;;4967447;28;20045;-73
2023/12/25 00:52:23;;;;;;;6.40;1.23;;;11.50;99.90;;;;;;4983470;28;20038;-73
2023/12/25 00:54:48;;;;;;;5.65;0.73;;;11.50;99.90;;;;;;5000356;28;20050;-73
2023/12/25 00:57:14;;;;;;;6.53;0.82;;;11.40;99.90;;;;;;4966787;28;20046;-73
2023/12/25 00:59:40;;;;;;;4.32;1.02;;;11.40;99.90;;;;;;5000071;28;20123;-74
2023/12/25 01:02:06;;;;;;;2.25;1.25;;;11.40;99.90;;;;;;4966181;28;20058;-73
2023/12/25 01:04:31;;;;;;;10.18;1.08;;;11.30;99.90;;;;;;4983683;28;20126;-73
2023/12/25 01:06:57;;;;;;;8.23;0.95;;;11.40;99.90;;;;;;4980330;28;20042;-73
2023/12/25 01:09:23;;;;;;;3.28;0.98;;;11.40;99.90;;;;;;4978130;28;20627;-73
2023/12/25 01:11:48;;;;;;;14.13;2.38;;;11.40;99.90;;;;;;4993090;28;20103;-72
2023/12/25 01:14:14;;;;;;;4.80;1.33;;;11.40;99.90;;;;;;5010116;28;20081;-73
2023/12/25 01:16:40;;;;;;;8.55;1.15;;;11.40;99.90;;;;;;4974505;28;20045;-72
2023/12/25 01:19:05;;;;;;;12.77;1.52;;;11.30;99.90;;;;;;4976612;28;20042;-73
2023/12/25 01:21:32;;;;;;;13.65;1.08;;;11.30;99.90;;;;;;5002442;28;20053;-73
2023/12/25 01:23:58;;;;;;;8.45;2.63;;;11.30;99.90;;;;;;4992854;28;20045;-72
2023/12/25 01:26:24;;;;;;;4.70;0.95;;;11.30;99.90;;;;;;5008699;28;20046;-73
2023/12/25 01:28:49;;;;;;;7.10;1.17;;;11.40;99.90;;;;;;4994343;28;20050;-73
2023/12/25 01:31:17;;;;;;;7.47;1.13;;;11.40;99.90;;;;;;4976252;28;20042;-73
2023/12/25 01:33:43;;;;;;;17.98;1.48;;;11.40;99.90;;;;;;5007783;28;20038;-73
2023/12/25 01:36:09;;;;;;;10.43;1.80;;;11.40;99.90;;;;;;4993352;28;20042;-73
2023/12/25 01:38:35;;;;;;;3.88;0.73;;;11.40;99.90;;;;;;4992186;28;20057;-73
2023/12/25 01:41:00;;;;;;;11.88;1.60;;;11.40;99.90;;;;;;4992439;28;20050;-73
2023/12/25 01:43:26;;;;;;;6.45;0.95;;;11.40;99.90;;;;;;4978663;28;20100;-73
2023/12/25 01:45:52;;;;;;;5.15;1.10;;;11.30;99.90;;;;;;4994650;28;20034;-73
2023/12/25 01:48:17;;;;;;;14.00;1.75;;;11.30;99.90;;;;;;4979204;28;20047;-73
2023/12/25 01:50:43;;;;;;;5.25;1.13;;;11.30;99.90;;;;;;4961008;28;20306;-73
2023/12/25 01:53:09;;;;;;;5.55;1.27;;;11.30;99.90;;;;;;5025677;28;20030;-73
2023/12/25 01:55:36;;;;;;;3.65;0.88;;;11.30;99.90;;;;;;4991089;28;20057;-73
2023/12/25 01:58:02;;;;;;;5.35;1.17;;;11.30;99.90;;;;;;5008491;28;20048;-74
2023/12/25 02:00:27;;;;;;;7.40;0.93;;;11.30;99.90;;;;;;4978739;28;20041;-73
2023/12/25 02:02:53;;;;;;;10.88;1.45;;;11.30;99.90;;;;;;4998483;28;20436;-73
2023/12/25 02:05:19;;;;;;;19.55;1.77;;;11.30;99.90;;;;;;5010150;28;20049;-73
2023/12/25 02:07:47;;;;;;;4.03;1.13;;;11.30;99.90;;;;;;4976989;28;20080;-73
2023/12/25 02:10:26;;;;;;;3.05;0.77;;;11.30;99.90;;;;;;5008466;28;20087;-73
2023/12/25 02:12:51;;;;;;;3.55;0.90;;;11.30;99.90;;;;;;4975724;28;20121;-74
2023/12/25 02:15:18;;;;;;;4.95;1.10;;;11.30;99.90;;;;;;4974043;28;20134;-74
2023/12/25 02:17:44;;;;;;;5.68;0.73;;;11.30;99.90;;;;;;5061453;28;20042;-73
2023/12/25 02:20:11;;;;;;;5.80;1.00;;;11.20;99.90;;;;;;4989264;28;20140;-73
2023/12/25 02:22:37;;;;;;;3.28;1.20;;;11.20;99.90;;;;;;5007907;28;20049;-73
2023/12/25 02:25:13;;;;;;;10.65;1.42;;;11.20;99.90;;;;;;4993132;28;20091;-73
2023/12/25 02:27:39;;;;;;;6.82;1.10;;;11.20;99.90;;;;;;4972933;28;20049;-73
2023/12/25 02:30:06;;;;;;;3.38;0.57;;;11.20;99.90;;;;;;4993089;28;20049;-73
2023/12/25 02:32:31;;;;;;;3.22;0.57;;;11.20;99.90;;;;;;4992132;28;20105;-73
2023/12/25 02:34:58;;;;;;;8.77;0.90;;;11.20;99.90;;;;;;4976325;28;20119;-74
2023/12/25 02:37:23;;;;;;;4.25;0.63;;;11.20;99.90;;;;;;4991105;28;20034;-73
2023/12/25 02:39:49;;;;;;;3.83;1.05;;;11.20;99.90;;;;;;5007040;28;20252;-73
2023/12/25 02:42:15;;;;;;;1.77;0.47;;;11.20;99.90;;;;;;4964635;28;20049;-73
2023/12/25 02:44:40;;;;;;;9.88;0.90;;;11.20;99.90;;;;;;5014828;28;20038;-72
2023/12/25 02:47:06;;;;;;;2.67;0.60;;;11.20;99.90;;;;;;4983226;28;20041;-73
2023/12/25 02:49:32;;;;;;;4.50;0.80;;;11.20;99.90;;;;;;4981520;28;20060;-74
2023/12/25 02:51:58;;;;;;;5.25;0.88;;;11.20;99.90;;;;;;4966258;28;20045;-74
2023/12/25 02:54:23;;;;;;;7.00;0.73;;;11.20;99.90;;;;;;4979092;28;20054;-74
2023/12/25 02:56:49;;;;;;;4.40;0.82;;;11.20;99.90;;;;;;4980145;28;20520;-74
2023/12/25 02:59:15;;;;;;;9.32;1.58;;;11.20;99.90;;;;;;4974333;28;20141;-74
2023/12/25 03:01:41;;;;;;;4.38;0.82;;;11.20;99.90;;;;;;4981394;28;20565;-74
2023/12/25 03:04:06;;;;;;;3.30;0.80;;;11.20;99.90;;;;;;4966284;28;20046;-74
2023/12/25 03:06:32;;;;;;;4.10;0.75;;;11.10;99.90;;;;;;4981448;28;20053;-74
2023/12/25 03:08:58;;;;;;;9.57;0.73;;;11.10;99.90;;;;;;4965850;28;20066;-73
2023/12/25 03:11:23;;;;;;;2.85;0.63;;;11.20;99.90;;;;;;4995198;28;20085;-74
2023/12/25 03:13:49;;;;;;;4.93;0.85;;;11.20;99.90;;;;;;4988807;28;20053;-74
2023/12/25 03:16:17;;;;;;;2.65;0.85;;;11.20;99.90;;;;;;4975609;28;20053;-74
2023/12/25 03:18:43;;;;;;;0.80;0.52;;;11.20;99.90;;;;;;4973141;28;20073;-74
2023/12/25 03:21:09;;;;;;;3.03;0.75;;;11.20;99.90;;;;;;4977548;28;21651;-74
2023/12/25 03:23:34;;;;;;;4.57;0.60;;;11.20;99.90;;;;;;5004276;28;20042;-74
2023/12/25 03:26:00;;;;;;;4.13;0.73;;;11.20;99.90;;;;;;5043500;28;20053;-74
2023/12/25 03:28:27;;;;;;;3.60;1.45;;;11.20;99.90;;;;;;4993827;28;20058;-74
2023/12/25 03:30:54;;;;;;;5.40;0.63;;;11.20;99.90;;;;;;4976735;28;20505;-74
2023/12/25 03:33:20;;;;;;;2.85;0.75;;;11.20;99.90;;;;;;4977618;28;20165;-74
2023/12/25 03:35:45;;;;;;;1.65;0.55;;;11.10;99.90;;;;;;4989763;28;20619;-74
2023/12/25 03:38:12;;;;;;;3.83;0.35;;;11.10;99.90;;;;;;4980609;28;20095;-74
2023/12/25 03:40:39;;;;;;;3.67;0.40;;;11.10;99.90;;;;;;4994321;28;20038;-74
2023/12/25 03:43:05;;;;;;;2.80;0.60;;;11.10;99.90;;;;;;4979843;28;20052;-74
2023/12/25 03:45:30;;;;;;;5.40;0.60;;;11.10;99.90;;;;;;4991082;28;20085;-74
2023/12/25 03:47:56;;;;;;;3.78;0.70;;;11.00;99.90;;;;;;4975677;28;20042;-74
2023/12/25 03:50:22;;;;;;;1.83;0.40;;;11.10;99.90;;;;;;4976462;28;20703;-74
2023/12/25 03:52:47;;;;;;;2.00;0.65;;;11.00;99.90;;;;;;4991417;28;20083;-74
2023/12/25 03:55:14;;;;;;;2.35;0.52;;;11.00;99.90;;;;;;4973761;28;20053;-74
2023/12/25 03:57:39;;;;;;;11.77;0.80;;;11.00;99.90;;;;;;4995490;28;20371;-74
2023/12/25 04:00:06;;;;;;;1.98;0.40;;;11.00;99.90;;;;;;4996676;28;20079;-74
2023/12/25 04:02:31;;;;;;;4.95;1.30;;;11.00;99.90;;;;;;4994148;28;20046;-74
2023/12/25 04:04:57;;;;;;;6.32;1.35;;;11.00;99.90;;;;;;5000909;28;20129;-74
2023/12/25 04:07:23;;;;;;;7.82;0.70;;;11.00;99.90;;;;;;5015995;28;20053;-74
2023/12/25 04:09:49;;;;;;;2.17;0.65;;;11.00;99.90;;;;;;5008895;28;20039;-74
2023/12/25 04:12:15;;;;;;;5.22;0.90;;;11.00;99.90;;;;;;4978778;28;20041;-74
2023/12/25 04:14:41;;;;;;;4.78;0.50;;;11.00;99.90;;;;;;4976703;28;20047;-74
2023/12/25 04:17:06;;;;;;;5.22;0.85;;;11.00;99.90;;;;;;4994578;28;20049;-74
2023/12/25 04:19:32;;;;;;;6.75;0.77;;;11.00;99.90;;;;;;4995439;28;20049;-74
2023/12/25 04:21:58;;;;;;;2.80;0.65;;;11.00;99.90;;;;;;5027560;28;20121;-74
2023/12/25 04:24:24;;;;;;;7.88;0.75;;;11.00;99.90;;;;;;4990844;28;20051;-74
2023/12/25 04:26:50;;;;;;;8.98;0.70;;;11.00;99.90;;;;;;4993300;28;20046;-74
2023/12/25 04:29:17;;;;;;;6.25;0.70;;;11.00;99.90;;;;;;4995672;28;20075;-74
2023/12/25 04:31:42;;;;;;;0.70;0.47;;;11.00;99.90;;;;;;4977147;28;20042;-74
2023/12/25 04:34:08;;;;;;;2.53;0.55;;;11.00;99.90;;;;;;4977693;28;20100;-74
2023/12/25 04:36:34;;;;;;;5.78;1.13;;;11.10;99.90;;;;;;4995097;28;20148;-74
2023/12/25 04:38:59;;;;;;;2.42;0.50;;;11.10;99.90;;;;;;4984471;28;20049;-74
2023/12/25 04:41:26;;;;;;;1.85;0.88;;;11.10;99.90;;;;;;4967974;28;20107;-74
2023/12/25 04:43:51;;;;;;;4.70;1.50;;;11.10;99.90;;;;;;4983650;28;20136;-74
2023/12/25 04:46:18;;;;;;;4.40;0.70;;;11.10;99.90;;;;;;4967067;28;20080;-74
2023/12/25 04:48:43;;;;;;;1.17;0.88;;;11.10;99.90;;;;;;4999344;28;20038;-74
2023/12/25 04:51:09;;;;;;;1.85;0.70;;;11.10;99.90;;;;;;4968074;28;20107;-74
2023/12/25 04:53:36;;;;;;;1.38;0.40;;;11.10;99.90;;;;;;4967349;28;20080;-74
2023/12/25 04:56:03;;;;;;;7.60;0.60;;;11.10;99.90;;;;;;4983785;28;20038;-74
2023/12/25 04:58:28;;;;;;;3.67;0.90;;;11.10;99.90;;;;;;4999727;28;20166;-74
2023/12/25 05:00:54;;;;;;;2.63;0.95;;;11.10;99.90;;;;;;4999391;28;20479;-74
2023/12/25 05:03:21;;;;;;;4.97;0.47;;;11.00;99.90;;;;;;4983845;28;20050;-74
2023/12/25 05:05:47;;;;;;;3.40;0.55;;;11.00;99.90;;;;;;4981966;28;20107;-74
2023/12/25 05:08:13;;;;;;;1.40;0.90;;;11.00;99.90;;;;;;5020234;28;20038;-74
2023/12/25 05:10:39;;;;;;;11.95;1.25;;;11.00;99.90;;;;;;4998778;28;20052;-74
2023/12/25 05:13:05;;;;;;;4.32;0.43;;;11.00;99.90;;;;;;4978814;28;20616;-74
2023/12/25 05:15:30;;;;;;;6.10;0.63;;;11.00;99.90;;;;;;4980206;28;20052;-74
2023/12/25 05:17:56;;;;;;;4.30;0.73;;;11.00;99.90;;;;;;4979774;28;20058;-74
2023/12/25 05:20:22;;;;;;;3.50;0.68;;;11.00;99.90;;;;;;5013417;28;20054;-74
2023/12/25 05:22:48;;;;;;;7.32;1.30;;;11.00;99.90;;;;;;4979462;28;20046;-74
2023/12/25 05:25:13;;;;;;;14.32;1.23;;;11.00;99.90;;;;;;4982959;28;20542;-74
2023/12/25 05:27:39;;;;;;;5.93;1.17;;;11.00;99.90;;;;;;4995437;28;20129;-74
2023/12/25 05:30:05;;;;;;;6.28;0.63;;;11.00;99.90;;;;;;4978343;28;20038;-74
2023/12/25 05:32:31;;;;;;;7.10;1.10;;;11.00;99.90;;;;;;5009316;28;20466;-74
2023/12/25 05:34:57;;;;;;;2.22;1.05;;;11.00;99.90;;;;;;4992966;28;20060;-74
2023/12/25 05:37:23;;;;;;;7.93;1.27;;;10.90;99.90;;;;;;4993232;28;20073;-74
2023/12/25 05:39:48;;;;;;;1.80;0.63;;;10.90;99.90;;;;;;5010188;28;20581;-74
2023/12/25 05:42:14;;;;;;;7.88;1.52;;;11.00;99.90;;;;;;4981808;28;20065;-74
2023/12/25 05:44:40;;;;;;;7.40;1.10;;;10.90;99.90;;;;;;4993260;28;20042;-74
2023/12/25 05:47:06;;;;;;;9.80;0.75;;;10.90;99.90;;;;;;4994283;28;20406;-74
2023/12/25 05:49:31;;;;;;;7.47;1.10;;;10.90;99.90;;;;;;4974732;28;20055;-74
2023/12/25 05:51:57;;;;;;;5.45;0.90;;;10.90;99.90;;;;;;4994572;28;20050;-74
2023/12/25 05:54:23;;;;;;;8.48;0.88;;;10.90;99.90;;;;;;4992732;28;20050;-74
2023/12/25 05:56:49;;;;;;;3.58;1.25;;;10.90;99.90;;;;;;4993370;28;20071;-74
2023/12/25 05:59:15;;;;;;;5.65;1.15;;;10.90;99.90;;;;;;4993289;28;20767;-74
2023/12/25 06:01:41;;;;;;;1.73;0.77;;;10.90;99.90;;;;;;4996514;28;20057;-74
2023/12/25 06:04:06;;;;;;;2.70;0.80;;;10.90;99.90;;;;;;4984450;28;20034;-74
2023/12/25 06:06:32;;;;;;;3.95;0.77;;;10.90;99.90;;;;;;4998423;28;20202;-74
2023/12/25 06:08:58;;;;;;;3.85;1.05;;;10.90;99.90;;;;;;4982933;28;20045;-74
2023/12/25 06:11:23;;;;;;;6.68;1.15;;;10.90;99.90;;;;;;4982355;28;20063;-74
2023/12/25 06:13:49;;;;;;;1.45;0.50;;;10.80;99.90;;;;;;5013414;28;20042;-74
2023/12/25 06:16:15;;;;;;;5.97;1.30;;;10.80;99.90;;;;;;5009219;28;20067;-74
2023/12/25 06:18:41;;;;;;;3.58;0.90;;;10.80;99.90;;;;;;4989258;28;20053;-74
2023/12/25 06:21:07;;;;;;;13.95;0.73;;;10.80;99.90;;;;;;4977092;28;20055;-74
2023/12/25 06:23:32;;;;;;;5.47;0.50;;;10.70;99.90;;;;;;5006858;28;20128;-74
2023/12/25 06:25:59;;;;;;;5.13;0.88;;;10.70;99.90;;;;;;5009646;28;20046;-74
2023/12/25 06:28:25;;;;;;;5.40;0.93;;;10.70;99.90;;;;;;4993486;28;20056;-74
2023/12/25 06:30:51;;;;;;;3.10;0.82;;;10.70;99.90;;;;;;4993898;28;20109;-74
2023/12/25 06:33:18;;;;;;;1.65;0.57;;;10.70;99.90;;;;;;4991290;28;20453;-74
2023/12/25 06:35:44;;;;;;;7.78;0.68;;;10.70;99.90;;;;;;5061792;28;20037;-74
2023/12/25 06:38:12;;;;;;;4.88;0.70;;;10.70;99.90;;;;;;4998788;28;20061;-74
2023/12/25 06:40:38;;;;;;;3.90;0.82;;;10.70;99.90;;;;;;4997452;28;20042;-74
2023/12/25 06:43:03;;;;;;;10.05;1.05;;;10.70;99.90;;;;;;4999143;28;20044;-74
2023/12/25 06:45:29;;;;;;;1.00;0.30;;;10.70;99.90;;;;;;4997405;28;20049;-74
2023/12/25 06:47:55;;;;;;;2.58;0.70;;;10.70;99.90;;;;;;4994789;28;20034;-74
2023/12/25 06:50:21;;;;;;;1.85;0.68;;;10.70;99.90;;;;;;5059540;28;20079;-74
2023/12/25 06:52:46;;;;;;;2.30;0.43;;;10.60;99.90;;;;;;4980982;28;20060;-74
2023/12/25 06:55:12;;;;;;;2.83;0.82;;;10.60;99.90;;;;;;4982568;28;20049;-74
2023/12/25 06:57:38;;;;;;;11.02;1.88;;;10.60;99.90;;;;;;4997544;28;20046;-74
2023/12/25 07:00:05;;;;;;;7.32;0.93;;;10.60;99.90;;;;;;4965896;28;20418;-74
2023/12/25 07:02:31;;;;;;;4.78;0.47;;;10.50;99.90;;;;;;4981609;28;20114;-74
2023/12/25 07:04:57;;;;;;;2.03;0.35;;;10.50;99.90;;;;;;4981751;28;20045;-74
2023/12/25 07:07:22;;;;;;;7.03;0.90;;;10.60;99.90;;;;;;4982397;28;20042;-74
2023/12/25 07:09:48;;;;;;;0.82;0.30;;;10.50;99.90;;;;;;4980281;28;20401;-74
2023/12/25 07:12:14;;;;;;;2.72;0.38;;;10.50;99.90;;;;;;5010757;28;20046;-74
2023/12/25 07:14:45;;;;;;;4.70;0.63;;;10.50;99.90;;;;;;4990038;28;20071;-74
2023/12/25 07:17:10;;;;;;;5.30;1.08;;;10.50;99.90;;;;;;4981692;28;20038;-74
2023/12/25 07:19:36;;;;;;;10.00;1.13;;;10.40;99.90;;;;;;4990524;28;20048;-74
2023/12/25 07:22:02;;;;;;;9.15;0.77;;;10.40;99.90;;;;;;4992110;28;20058;-74
2023/12/25 07:24:28;;;;;;;2.70;0.60;;;10.40;99.90;;;;;;4976851;28;20046;-74
2023/12/25 07:26:53;;;;;;;5.95;0.80;;;10.40;99.90;;;;;;4976380;28;20498;-74
2023/12/25 07:29:20;;;;;;;3.90;0.60;;;10.40;99.90;;;;;;4978107;28;20050;-74
2023/12/25 07:31:45;;;;;;;0.52;0.50;;;10.30;99.90;;;;;;4971270;28;20045;-74
2023/12/25 07:34:11;;;;;;;2.85;0.60;;;10.30;99.90;;;;;;5016892;28;20121;-73
2023/12/25 07:36:37;;;;;;;4.95;0.40;;;10.20;99.90;;;;;;4980272;28;20042;-74
2023/12/25 07:39:05;;;;;;;4.75;1.00;;;10.20;99.90;;;;;;4995123;28;20504;-74
2023/12/25 07:41:31;;;;;;;5.53;0.50;;;10.10;99.90;;;;;;4999392;28;20049;-73
2023/12/25 07:44:00;;;;;;;1.65;0.20;;;10.10;99.90;;;;;;4960640;28;20046;-74
2023/12/25 07:46:26;;;;;;;2.53;0.55;;;10.10;99.90;;;;;;4972847;28;20064;-74
2023/12/25 07:48:52;;;;;;;9.13;0.80;;;10.10;99.90;;;;;;4973528;28;20049;-73
2023/12/25 07:51:18;;;;;;;13.68;1.20;;;10.00;99.90;;;;;;4961462;28;20050;-74
2023/12/25 07:53:47;;;;;;;1.90;0.40;;;9.90;99.90;;;;;;5007417;28;20046;-74
2023/12/25 07:56:12;;;;;;;3.10;0.57;;;9.90;99.90;;;;;;4977568;28;20082;-74
2023/12/25 07:58:38;;;;;;;5.93;0.85;;;9.90;99.90;;;;;;4974747;28;20069;-74
2023/12/25 08:01:04;;;;;;;1.40;0.40;;;9.80;99.90;;;;;;4978393;28;20052;-74
2023/12/25 08:03:30;;;;;;;2.35;0.40;;;9.80;99.90;;;;;;4989689;28;20065;-74
2023/12/25 08:05:55;;;;;;;4.15;0.50;;;9.80;99.90;;;;;;4994346;28;20137;-74
2023/12/25 08:08:21;;;;;;;3.45;0.57;;;9.70;99.90;;;;;;4979570;28;20050;-74
2023/12/25 08:10:46;;;;;;;6.53;0.98;;;9.70;99.90;;;;;;5043576;28;20046;-74
2023/12/25 08:13:18;;;;;;;2.47;0.50;;;9.70;99.90;;;;;;4988290;28;20461;-73
2023/12/25 08:15:44;;;;;;;7.88;0.55;;;9.60;99.90;;;;;;5013677;28;20390;-73
2023/12/25 08:18:10;;;;;;;7.93;0.80;;;9.70;99.90;;;;;;4999324;28;20049;-73
2023/12/25 08:20:36;;;;;;;5.93;0.65;;;9.70;99.90;;;;;;5010727;28;20067;-75
2023/12/25 08:23:01;;;;;;;6.82;0.68;;;9.60;99.90;;;;;;4976823;28;20106;-74
2023/12/25 08:25:27;;;;;;;1.17;0.52;;;9.60;99.90;;;;;;4979768;28;20067;-74
2023/12/25 08:27:53;;;;;;;1.75;0.47;;;9.60;99.90;;;;;;4977841;28;20046;-74
2023/12/25 08:30:18;;;;;;;3.20;0.47;;;9.60;99.90;;;;;;4992799;28;20084;-74
2023/12/25 08:32:45;;;;;;;3.35;0.50;;;9.60;99.90;;;;;;4964319;28;20420;-75
2023/12/25 08:35:10;;;;;;;2.47;0.52;;;9.60;99.90;;;;;;4958235;28;20042;-75
2023/12/25 08:37:36;;;;;;;6.53;0.90;;;9.70;99.90;;;;;;4983554;28;20478;-75
2023/12/25 08:40:03;;;;;;;5.55;1.40;;;9.70;99.90;;;;;;4982435;28;20042;-75
2023/12/25 08:42:30;;;;;;;6.03;0.70;;;9.70;99.90;;;;;;5000290;28;20067;-74
2023/12/25 08:44:56;;;;;;;9.95;0.85;;;9.70;99.90;;;;;;4982970;28;20050;-74
2023/12/25 08:47:22;;;;;;;1.88;0.43;;;9.70;99.90;;;;;;4968276;28;20045;-75
2023/12/25 08:49:48;;;;;;;8.98;0.70;;;9.70;99.90;;;;;;4967410;28;20038;-75
2023/12/25 08:52:14;;;;;;;5.28;1.15;;;9.70;99.90;;;;;;4981164;28;20099;-75
2023/12/25 08:54:39;;;;;;;3.55;0.65;;;9.70;99.90;;;;;;4994278;28;20646;-75
2023/12/25 08:57:05;;;;;;;11.05;1.27;;;9.70;99.90;;;;;;5007814;28;20050;-75
2023/12/25 08:59:31;;;;;;;4.80;1.10;;;9.70;99.90;;;;;;4975877;28;20405;-75
2023/12/25 09:01:57;;;;;;;2.15;0.70;;;9.70;99.90;;;;;;4993814;28;20075;-75
2023/12/25 09:04:22;;;;;;;1.65;0.85;;;9.70;99.90;;;;;;5010152;28;20061;-75
2023/12/25 09:06:48;;;;;;;3.60;0.60;;;9.80;99.90;;;;;;4997242;28;20041;-75
2023/12/25 09:09:14;;;;;;;3.75;0.45;;;9.80;99.90;;;;;;4981039;28;20050;-75
2023/12/25 09:11:40;;;;;;;1.83;0.63;;;9.80;99.90;;;;;;4996671;28;20053;-75
2023/12/25 09:14:05;;;;;;;7.65;0.55;;;9.80;99.90;;;;;;4994844;28;20091;-75
2023/12/25 09:16:31;;;;;;;6.45;0.50;;;9.80;99.90;;;;;;4975082;28;20038;-75
2023/12/25 09:18:57;;;;;;;4.80;0.77;;;9.80;99.90;;;;;;5023879;28;20410;-75
2023/12/25 09:21:23;;;;;;;6.43;0.65;;;9.90;99.90;;;;;;4978899;28;20057;-75
2023/12/25 09:23:48;;;;;;;4.35;0.73;;;9.90;99.90;;;;;;4977588;28;20637;-75
2023/12/25 09:26:19;;;;;;;5.32;1.52;;;9.90;99.90;;;;;;5008888;28;20061;-75
2023/12/25 09:28:45;;;;;;;5.65;1.20;;;9.90;99.90;;;;;;5001440;28;20079;-74
2023/12/25 09:31:11;;;;;;;2.45;0.57;;;10.00;99.90;;;;;;4991198;28;20046;-75
2023/12/25 09:33:37;;;;;;;4.57;0.80;;;10.10;99.90;;;;;;4978444;28;20061;-75
2023/12/25 09:36:03;;;;;;;5.57;0.95;;;10.10;99.90;;;;;;4992830;28;20062;-75
2023/12/25 09:38:29;;;;;;;3.90;0.90;;;10.20;99.90;;;;;;5010312;28;20112;-75
2023/12/25 09:40:58;;;;;;;3.80;1.13;;;10.20;99.90;;;;;;5008873;28;20049;-75
2023/12/25 09:43:24;;;;;;;2.63;0.90;;;10.10;99.90;;;;;;4991271;28;20079;-75
2023/12/25 09:45:50;;;;;;;8.20;1.58;;;10.00;99.90;;;;;;4978334;28;20049;-75
2023/12/25 09:48:19;;;;;;;2.85;0.95;;;10.00;99.90;;;;;;4977633;28;20046;-74
2023/12/25 09:50:45;;;;;;;2.72;0.70;;;10.00;99.90;;;;;;4993541;28;20046;-75
2023/12/25 09:53:11;;;;;;;1.63;0.70;;;10.10;99.90;;;;;;4993095;28;20046;-75
2023/12/25 09:55:37;;;;;;;5.07;0.77;;;10.10;99.90;;;;;;4997048;28;20082;-75
2023/12/25 09:58:07;;;;;;;7.07;0.73;;;10.10;99.90;;;;;;5013299;28;20053;-75
2023/12/25 10:00:33;;;;;;;2.05;0.63;;;10.10;99.90;;;;;;4998773;28;20050;-75
2023/12/25 10:03:02;;;;;;;6.80;0.90;;;10.20;99.90;;;;;;4999147;28;20052;-75
2023/12/25 10:05:28;;;;;;;10.30;0.93;;;10.20;99.90;;;;;;4998003;28;20052;-75
2023/12/25 10:07:54;;;;;;;4.80;0.60;;;10.20;99.90;;;;;;4999626;28;20077;-75
2023/12/25 10:10:27;;;;;;;6.68;0.82;;;10.30;99.90;;;;;;5015473;28;20530;-75
2023/12/25 10:12:53;;;;;;;2.33;0.68;;;10.40;99.90;;;;;;5015749;28;20045;-75
2023/12/25 10:15:18;;;;;;;1.05;0.60;;;10.40;99.90;;;;;;4981977;28;20517;-75
2023/12/25 10:17:44;;;;;;;6.00;1.15;;;10.40;99.90;;;;;;4982585;28;20129;-75
2023/12/25 10:20:17;;;;;;;9.88;1.30;;;10.50;99.90;;;;;;4982340;28;20094;-75
2023/12/25 10:22:43;;;;;;;3.80;0.98;;;10.50;99.90;;;;;;4997908;28;20042;-75
2023/12/25 10:25:10;;;;;;;2.90;0.82;;;10.50;99.90;;;;;;4996035;28;20073;-75
2023/12/25 10:27:43;;;;;;;3.85;0.88;;;10.60;99.90;;;;;;4991926;28;20065;-75
2023/12/25 10:30:20;;;;;;;3.50;0.60;;;10.60;99.90;;;;;;4977357;28;20087;-75
2023/12/25 10:32:49;;;;;;;5.40;1.00;;;10.70;99.90;;;;;;4992155;28;20132;-75
2023/12/25 10:35:19;;;;;;;6.63;0.77;;;10.70;99.90;;;;;;4992636;28;20054;-75
2023/12/25 10:37:46;;;;;;;7.85;1.05;;;10.70;99.90;;;;;;5006704;28;20046;-75
2023/12/25 10:40:25;;;;;;;7.28;1.02;;;10.70;99.90;;;;;;4988614;28;20046;-75
2023/12/25 10:42:53;;;;;;;4.93;1.63;;;10.70;99.90;;;;;;4974367;28;20054;-75
2023/12/25 10:45:30;;;;;;;5.40;0.75;;;10.70;99.90;;;;;;5005317;28;20103;-75
2023/12/25 10:48:03;;;;;;;4.10;1.08;;;10.70;99.90;;;;;;4987400;28;20042;-75
2023/12/25 10:50:36;;;;;;;3.40;1.02;;;10.70;99.90;;;;;;4977517;28;20436;-75
2023/12/25 10:53:06;;;;;;;12.02;1.30;;;10.70;99.90;;;;;;5007320;28;20042;-75
2023/12/25 10:55:41;;;;;;;3.85;1.23;;;10.70;99.90;;;;;;5015600;28;20046;-75
2023/12/25 10:58:10;;;;;;;7.72;1.42;;;10.80;99.90;;;;;;4990216;28;20609;-75
2023/12/25 11:00:49;;;;;;;4.55;0.55;;;10.80;99.90;;;;;;4997940;28;20046;-75
2023/12/25 11:03:15;;;;;;;2.78;0.60;;;10.80;99.90;;;;;;5001099;28;20033;-75
2023/12/25 11:05:42;;;;;;;2.38;0.52;;;10.80;99.90;;;;;;5013191;28;20034;-75
2023/12/25 11:08:13;;;;;;;7.13;1.05;;;10.80;99.90;;;;;;5014473;28;20061;-75
2023/12/25 11:10:39;;;;;;;7.47;1.05;;;10.80;99.90;;;;;;5013377;28;20057;-75
2023/12/25 11:13:06;;;;;;;3.45;0.60;;;10.80;99.90;;;;;;5014812;28;20046;-75
2023/12/25 11:15:32;;;;;;;4.80;1.13;;;10.80;99.90;;;;;;4996399;28;20084;-80
2023/12/25 11:17:59;;;;;;;5.13;1.35;;;10.80;99.90;;;;;;4973192;28;20050;-80
2023/12/25 11:20:25;;;;;;;6.18;1.02;;;10.80;99.90;;;;;;4976894;28;20049;-80
2023/12/25 11:22:56;;;;;;;5.45;1.55;;;10.80;99.90;;;;;;4980617;28;20045;-80
2023/12/25 11:25:22;;;;;;;1.80;0.47;;;10.80;99.90;;;;;;5031520;28;20049;-80
2023/12/25 11:27:53;;;;;;;6.05;1.55;;;10.80;99.90;;;;;;4997098;28;20050;-80
2023/12/25 11:30:21;;;;;;;4.32;0.70;;;10.90;99.90;;;;;;4997023;28;20132;-80
2023/12/25 11:32:49;;;;;;;1.10;0.73;;;10.90;99.90;;;;;;5038409;28;20124;-80
2023/12/25 11:35:27;;;;;;;3.33;0.85;;;10.90;99.90;;;;;;5013318;28;20053;-80
2023/12/25 11:38:14;;;;;;;7.03;0.95;;;10.90;99.90;;;;;;5002096;28;20183;-80
2023/12/25 11:40:43;;;;;;;1.45;0.65;;;11.00;99.90;;;;;;4995232;28;20868;-80
2023/12/25 11:43:09;;;;;;;3.88;0.80;;;10.90;99.90;;;;;;5005875;28;20394;-80
2023/12/25 11:45:41;;;;;;;4.03;0.90;;;11.00;99.90;;;;;;4991260;28;20058;-80
2023/12/25 11:48:10;;;;;;;6.45;1.35;;;11.00;99.90;;;;;;5001714;28;20065;-80
2023/12/25 11:50:36;;;;;;;3.65;0.90;;;11.00;99.90;;;;;;4998785;28;20044;-80
2023/12/25 11:53:02;;;;;;;6.35;0.85;;;10.90;99.90;;;;;;4979102;28;20030;-80
2023/12/25 11:55:28;;;;;;;6.25;1.02;;;10.90;99.90;;;;;;4997391;28;20097;-80
2023/12/25 11:57:55;;;;;;;5.53;0.70;;;10.90;99.90;;;;;;4995235;28;20067;-80
2023/12/25 12:00:22;;;;;;;6.55;1.30;;;11.00;99.90;;;;;;4994986;28;20046;-80
2023/12/25 12:02:49;;;;;;;11.45;0.90;;;11.00;99.90;;;;;;5005224;28;20041;-80
2023/12/25 12:05:15;;;;;;;4.75;0.68;;;11.00;99.90;;;;;;4977048;28;20133;-80
2023/12/25 12:07:42;;;;;;;1.48;0.57;;;11.00;99.90;;;;;;4991645;28;20042;-80
2023/12/25 12:10:09;;;;;;;5.80;0.93;;;11.00;99.90;;;;;;4996280;28;20077;-81
2023/12/25 12:12:36;;;;;;;5.53;0.68;;;11.00;99.90;;;;;;4981590;28;20111;-80
2023/12/25 12:15:03;;;;;;;3.25;0.63;;;11.00;99.90;;;;;;5001764;28;20076;-80
2023/12/25 12:17:29;;;;;;;1.40;0.40;;;11.00;99.90;;;;;;4981854;28;20077;-80
2023/12/25 12:19:56;;;;;;;4.40;0.98;;;11.00;99.90;;;;;;4979773;28;20381;-80
2023/12/25 12:22:23;;;;;;;2.58;0.95;;;10.90;99.90;;;;;;5002559;28;20098;-80
2023/12/25 12:24:49;;;;;;;8.23;0.80;;;10.90;99.90;;;;;;4968283;28;20050;-80
2023/12/25 12:27:19;;;;;;;5.03;0.60;;;10.80;99.90;;;;;;4975988;28;20050;-80
2023/12/25 12:29:49;;;;;;;2.97;1.27;;;10.90;99.90;;;;;;5001568;28;20061;-80
2023/12/25 12:32:16;;;;;;;7.57;1.45;;;10.90;99.90;;;;;;4993793;28;20453;-80
2023/12/25 12:34:43;;;;;;;8.20;1.10;;;10.90;99.90;;;;;;4986858;28;20056;-80
2023/12/25 12:37:09;;;;;;;3.08;0.95;;;10.90;99.90;;;;;;4990449;28;20056;-80
2023/12/25 12:39:36;;;;;;;9.02;1.17;;;10.90;99.90;;;;;;4988834;28;20042;-80
2023/12/25 12:42:07;;;;;;;5.45;1.05;;;10.90;99.90;;;;;;4993270;28;20054;-80
2023/12/25 12:44:33;;;;;;;1.77;0.73;;;11.00;99.90;;;;;;5007630;28;20045;-80